createdAt,value
2019-03-18T00:00:33.146Z,94232.13
2019-03-18T00:03:02.073Z,94235.89
2019-03-18T00:05:30.762Z,94242.66
2019-03-18T00:07:59.306Z,94242.67
2019-03-18T00:10:27.911Z,94247.33
2019-03-18T00:12:56.521Z,94235.50
2019-03-18T00:15:25.136Z,94238.92
2019-03-18T00:17:53.679Z,94238.50
2019-03-18T00:20:22.209Z,94232.20
2019-03-18T00:22:50.846Z,94231.34
2019-03-18T00:25:19.450Z,94230.94
2019-03-18T00:27:47.991Z,94232.59
2019-03-18T00:30:18.745Z,94230.48
2019-03-18T00:32:47.347Z,94237.66
2019-03-18T00:35:15.988Z,94238.48
2019-03-18T00:37:44.593Z,94228.27
2019-03-18T00:40:14.903Z,94233.33
2019-03-18T00:42:43.515Z,94228.23
2019-03-18T00:45:15.150Z,94233.78
2019-03-18T00:47:43.483Z,94239.23
2019-03-18T00:50:16.799Z,94237.14
2019-03-18T00:52:45.515Z,94241.72
2019-03-18T00:55:14.116Z,94243.81
2019-03-18T00:57:43.909Z,94242.98
2019-03-18T01:00:16.423Z,94234.89
2019-03-18T01:02:45.059Z,94240.36
2019-03-18T01:05:14.290Z,94238.63
2019-03-18T01:07:42.930Z,94238.17
2019-03-18T01:10:13.712Z,94241.98
2019-03-18T01:12:42.284Z,94240.27
2019-03-18T01:15:11.801Z,94250.00
2019-03-18T01:17:40.412Z,94256.80
2019-03-18T01:20:10.815Z,94243.20
2019-03-18T01:22:39.360Z,94238.57
2019-03-18T01:25:09.712Z,94244.53
2019-03-18T01:27:38.357Z,94243.27
2019-03-18T01:30:12.213Z,94231.45
2019-03-18T01:32:40.813Z,94238.25
2019-03-18T01:35:10.527Z,94246.71
2019-03-18T01:37:39.159Z,94246.79
2019-03-18T01:40:12.186Z,94229.51
2019-03-18T01:42:40.812Z,94239.67
2019-03-18T01:45:11.465Z,94241.41
2019-03-18T01:47:40.195Z,94259.66
2019-03-18T01:50:13.590Z,94258.89
2019-03-18T01:52:41.880Z,94281.41
2019-03-18T01:55:10.480Z,94308.16
2019-03-18T01:57:39.079Z,94316.97
2019-03-18T02:00:13.023Z,94323.57
2019-03-18T02:02:41.573Z,94328.83
2019-03-18T02:05:10.979Z,94340.78
2019-03-18T02:07:39.616Z,94346.01
2019-03-18T02:10:13.325Z,94350.94
2019-03-18T02:12:41.959Z,94340.30
2019-03-18T02:15:12.904Z,94362.33
2019-03-18T02:17:41.488Z,94360.62
2019-03-18T02:20:14.204Z,94368.31
2019-03-18T02:22:42.810Z,94369.23
2019-03-18T02:25:11.579Z,94379.92
2019-03-18T02:27:40.262Z,94399.09
2019-03-18T02:30:13.791Z,94389.86
2019-03-18T02:32:42.469Z,94402.66
2019-03-18T02:35:11.069Z,94403.55
2019-03-18T02:37:39.617Z,94408.67
2019-03-18T02:40:09.821Z,94417.62
2019-03-18T02:42:38.434Z,94414.30
2019-03-18T02:45:09.640Z,94418.12
2019-03-18T02:47:38.218Z,94416.88
2019-03-18T02:50:08.231Z,94426.27
2019-03-18T02:52:36.878Z,94429.27
2019-03-18T02:55:08.521Z,94427.17
2019-03-18T02:57:37.116Z,94433.16
2019-03-18T03:00:11.315Z,94433.16
2019-03-18T03:02:39.885Z,94446.75
2019-03-18T03:05:10.896Z,94459.48
2019-03-18T03:07:39.423Z,94463.33
2019-03-18T03:10:11.451Z,94459.97
2019-03-18T03:12:40.000Z,94463.77
2019-03-18T03:15:13.554Z,94476.50
2019-03-18T03:17:42.203Z,94487.94
2019-03-18T03:20:12.673Z,94493.90
2019-03-18T03:22:41.277Z,94501.14
2019-03-18T03:25:11.004Z,94506.23
2019-03-18T03:27:39.620Z,94505.41
2019-03-18T03:30:17.539Z,94502.47
2019-03-18T03:32:46.060Z,94502.91
2019-03-18T03:35:14.797Z,94520.70
2019-03-18T03:37:43.474Z,94522.47
2019-03-18T03:40:12.860Z,94532.64
2019-03-18T03:42:41.477Z,94536.94
2019-03-18T03:45:12.450Z,94531.47
2019-03-18T03:47:41.058Z,94535.28
2019-03-18T03:50:12.309Z,94541.69
2019-03-18T03:52:40.901Z,94545.89
2019-03-18T03:55:11.099Z,94553.55
2019-03-18T03:57:40.150Z,94558.23
2019-03-18T04:00:13.125Z,94570.55
2019-03-18T04:02:42.368Z,94572.23
2019-03-18T04:05:11.273Z,94569.73
2019-03-18T04:07:39.868Z,94585.85
2019-03-18T04:10:15.532Z,94585.49
2019-03-18T04:12:44.265Z,94591.02
2019-03-18T04:15:14.191Z,94608.80
2019-03-18T04:17:42.871Z,94603.35
2019-03-18T04:20:16.452Z,94595.80
2019-03-18T04:22:45.089Z,94614.41
2019-03-18T04:25:13.634Z,94616.95
2019-03-18T04:27:42.267Z,94629.66
2019-03-18T04:30:13.749Z,94634.33
2019-03-18T04:32:42.387Z,94652.13
2019-03-18T04:35:11.100Z,94634.42
2019-03-18T04:37:39.550Z,94647.55
2019-03-18T04:40:10.231Z,94654.33
2019-03-18T04:42:38.687Z,94681.44
2019-03-18T04:45:08.987Z,94675.11
2019-03-18T04:47:37.584Z,94663.29
2019-03-18T04:50:10.864Z,94690.80
2019-03-18T04:52:39.393Z,94684.94
2019-03-18T04:55:08.699Z,94696.35
2019-03-18T04:57:37.258Z,94696.77
2019-03-18T05:00:11.668Z,94700.16
2019-03-18T05:02:40.224Z,94710.73
2019-03-18T05:05:10.688Z,94713.28
2019-03-18T05:07:39.317Z,94709.92
2019-03-18T05:10:09.766Z,94713.31
2019-03-18T05:12:38.469Z,94711.25
2019-03-18T05:15:11.418Z,94717.16
2019-03-18T05:17:39.949Z,94715.45
2019-03-18T05:20:12.305Z,94723.06
2019-03-18T05:22:42.532Z,94723.92
2019-03-18T05:25:11.523Z,94716.72
2019-03-18T05:27:40.187Z,94720.97
2019-03-18T05:30:13.629Z,94723.11
2019-03-18T05:32:42.228Z,94738.33
2019-03-18T05:35:10.925Z,94734.52
2019-03-18T05:37:39.532Z,94743.41
2019-03-18T05:40:09.369Z,94749.76
2019-03-18T05:42:37.982Z,94748.49
2019-03-18T05:45:09.464Z,94746.80
2019-03-18T05:47:39.644Z,94747.64
2019-03-18T05:50:10.233Z,94750.20
2019-03-18T05:52:38.900Z,94746.81
2019-03-18T05:55:09.013Z,94756.53
2019-03-18T05:57:37.542Z,94768.77
2019-03-18T06:00:09.252Z,94764.13
2019-03-18T06:02:37.967Z,94771.30
2019-03-18T06:05:07.360Z,94778.06
2019-03-18T06:07:35.965Z,94770.46
2019-03-18T06:10:07.434Z,94778.50
2019-03-18T06:12:35.960Z,94784.81
2019-03-18T06:15:06.926Z,94786.94
2019-03-18T06:17:35.555Z,94789.03
2019-03-18T06:20:06.354Z,94792.85
2019-03-18T06:22:35.040Z,94799.61
2019-03-18T06:25:04.376Z,94800.46
2019-03-18T06:27:32.903Z,94808.91
2019-03-18T06:30:01.486Z,94808.48
2019-03-18T06:32:30.119Z,94810.59
2019-03-18T06:34:58.644Z,94819.88
2019-03-18T06:37:27.243Z,94819.05
2019-03-18T06:39:55.800Z,94818.62
2019-03-18T06:42:24.613Z,94817.37
2019-03-18T06:44:53.143Z,94821.15
2019-03-18T06:47:21.703Z,94813.12
2019-03-18T06:49:50.223Z,94814.41
2019-03-18T06:52:18.674Z,94816.94
2019-03-18T06:54:47.150Z,94820.73
2019-03-18T06:57:15.610Z,94825.39
2019-03-18T06:59:45.070Z,94830.46
2019-03-18T07:02:13.665Z,94830.88
2019-03-18T07:04:42.282Z,94833.83
2019-03-18T07:07:10.904Z,94838.89
2019-03-18T07:09:39.452Z,94841.43
2019-03-18T07:12:08.008Z,94838.48
2019-03-18T07:14:36.547Z,94841.02
2019-03-18T07:17:05.173Z,94842.70
2019-03-18T07:19:33.645Z,94847.78
2019-03-18T07:22:02.278Z,94848.20
2019-03-18T07:24:30.936Z,94860.03
2019-03-18T07:26:59.540Z,94863.83
2019-03-18T07:29:28.077Z,94865.11
2019-03-18T07:31:56.673Z,94868.91
2019-03-18T07:34:25.273Z,94865.97
2019-03-18T07:36:55.081Z,94865.09
2019-03-18T07:39:27.174Z,94867.64
2019-03-18T07:41:55.683Z,94865.09
2019-03-18T07:44:24.304Z,94860.90
2019-03-18T07:46:52.977Z,94860.88
2019-03-18T07:49:21.565Z,94857.06
2019-03-18T07:51:50.093Z,94864.67
2019-03-18T07:54:18.691Z,94862.55
2019-03-18T07:56:47.221Z,94853.67
2019-03-18T07:59:15.828Z,94847.33
2019-03-18T08:01:44.360Z,94851.11
2019-03-18T08:04:12.888Z,94842.66
2019-03-18T08:06:41.454Z,94844.77
2019-03-18T08:09:10.050Z,94843.09
2019-03-18T08:11:38.609Z,94815.16
2019-03-18T08:14:07.333Z,94802.89
2019-03-18T08:16:35.893Z,94831.16
2019-03-18T08:19:04.439Z,94855.28
2019-03-18T08:21:32.958Z,94864.58
2019-03-18T08:24:01.506Z,94870.08
2019-03-18T08:26:30.106Z,94885.77
2019-03-18T08:29:00.807Z,94881.55
2019-03-18T08:31:29.418Z,94882.84
2019-03-18T08:33:58.074Z,94890.45
2019-03-18T08:36:26.620Z,94899.33
2019-03-18T08:38:55.153Z,94906.95
2019-03-18T08:41:23.705Z,94895.96
2019-03-18T08:43:52.281Z,94886.22
2019-03-18T08:46:20.735Z,94888.77
2019-03-18T08:48:55.775Z,94909.05
2019-03-18T08:51:19.709Z,94928.09
2019-03-18T08:53:48.391Z,94942.91
2019-03-18T08:56:19.792Z,94958.53
2019-03-18T08:58:48.424Z,94954.73
2019-03-18T09:01:17.013Z,94953.04
2019-03-18T09:03:45.501Z,94958.97
2019-03-18T09:06:14.043Z,94961.08
2019-03-18T09:08:42.532Z,94967.42
2019-03-18T09:11:11.066Z,94968.27
2019-03-18T09:13:39.541Z,94968.69
2019-03-18T09:16:08.144Z,94972.48
2019-03-18T09:18:37.080Z,94977.16
2019-03-18T09:21:05.607Z,94982.23
2019-03-18T09:23:34.245Z,94985.61
2019-03-18T09:26:02.881Z,94997.45
2019-03-18T09:28:31.410Z,94991.52
2019-03-18T09:31:00.025Z,94991.10
2019-03-18T09:33:28.592Z,94987.30
2019-03-18T09:35:57.224Z,94989.00
2019-03-18T09:38:27.907Z,94994.52
2019-03-18T09:40:56.170Z,94986.89
2019-03-18T09:43:24.804Z,94975.03
2019-03-18T09:45:54.653Z,94959.39
2019-03-18T09:48:23.352Z,94951.77
2019-03-18T09:50:53.136Z,94957.28
2019-03-18T09:53:21.707Z,94975.05
2019-03-18T10:06:07.214Z,95001.23
2019-03-18T10:08:35.748Z,95006.75
2019-03-18T10:11:46.668Z,94997.88
2019-03-18T10:14:15.307Z,94995.77
2019-03-18T10:16:43.901Z,94988.14
2019-03-18T10:19:12.370Z,95002.98
2019-03-18T10:21:40.850Z,95002.55
2019-03-18T10:24:09.397Z,94995.78
2019-03-18T10:26:38.051Z,94990.70
2019-03-18T10:29:06.619Z,94989.41
2019-03-18T10:31:38.893Z,94993.66
2019-03-18T10:34:07.548Z,95000.42
2019-03-18T10:36:36.113Z,95005.06
2019-03-18T10:39:07.010Z,95014.80
2019-03-18T10:41:35.455Z,95017.33
2019-03-18T10:44:04.106Z,95028.78
2019-03-18T10:46:32.602Z,95036.83
2019-03-18T10:49:01.212Z,95036.38
2019-03-18T10:51:31.933Z,95033.42
2019-03-18T10:54:01.373Z,95028.36
2019-03-18T10:56:29.931Z,95022.42
2019-03-18T10:59:00.591Z,95003.81
2019-03-18T11:01:29.220Z,94966.59
2019-03-18T11:03:57.855Z,94960.66
2019-03-18T11:06:26.449Z,94987.72
2019-03-18T11:08:55.065Z,95010.14
2019-03-18T11:11:23.676Z,95006.77
2019-03-18T11:13:52.275Z,95013.12
2019-03-18T11:16:20.913Z,95017.78
2019-03-18T11:18:49.431Z,95011.85
2019-03-18T11:21:17.968Z,95005.06
2019-03-18T11:23:48.589Z,95000.83
2019-03-18T11:26:17.617Z,94989.83
2019-03-18T11:28:46.149Z,95009.31
2019-03-18T11:31:14.750Z,95031.30
2019-03-18T11:33:43.282Z,95009.29
2019-03-18T11:36:11.810Z,94998.30
2019-03-18T11:38:43.271Z,95007.63
2019-03-18T11:41:11.941Z,95004.66
2019-03-18T11:43:40.485Z,94987.70
2019-03-18T11:46:10.674Z,94985.60
2019-03-18T11:48:39.275Z,94982.62
2019-03-18T11:51:09.011Z,94985.60
2019-03-18T11:53:37.624Z,94988.55
2019-03-18T11:56:06.250Z,95000.00
2019-03-18T11:58:34.842Z,95006.73
2019-03-18T12:01:03.459Z,95012.69
2019-03-18T12:03:32.064Z,95017.77
2019-03-18T12:06:00.718Z,95021.57
2019-03-18T12:08:31.544Z,95012.27
2019-03-18T12:11:00.084Z,95015.20
2019-03-18T12:13:28.713Z,95018.17
2019-03-18T12:15:57.288Z,95017.35
2019-03-18T12:18:25.887Z,95027.52
2019-03-18T12:20:54.450Z,95019.05
2019-03-18T12:23:23.048Z,95024.53
2019-03-18T12:25:51.617Z,95027.48
2019-03-18T12:28:20.239Z,95030.03
2019-03-18T12:30:48.787Z,95020.31
2019-03-18T12:33:17.320Z,95023.69
2019-03-18T12:35:47.129Z,95022.41
2019-03-18T12:38:15.660Z,95023.25
2019-03-18T12:40:44.277Z,95027.06
2019-03-18T12:43:12.878Z,95023.67
2019-03-18T12:45:41.472Z,95038.48
2019-03-18T12:48:10.076Z,95041.42
2019-03-18T12:50:54.370Z,95044.43
2019-03-18T12:53:09.147Z,95035.53
2019-03-18T12:55:37.756Z,95034.25
2019-03-18T12:58:06.518Z,95037.20
2019-03-18T13:00:38.115Z,95026.17
2019-03-18T13:03:06.727Z,95027.42
2019-03-18T13:05:35.324Z,95037.61
2019-03-18T13:08:03.985Z,95037.61
2019-03-18T13:10:32.502Z,95035.50
2019-03-18T13:13:01.114Z,95029.98
2019-03-18T13:15:29.727Z,95025.34
2019-03-18T13:17:58.406Z,95037.20
2019-03-18T13:20:26.936Z,95032.13
2019-03-18T13:22:55.393Z,95039.77
2019-03-18T13:25:25.985Z,95039.34
2019-03-18T13:27:57.278Z,95029.58
2019-03-18T13:30:26.286Z,95033.42
2019-03-18T13:32:54.918Z,95039.33
2019-03-18T13:35:23.549Z,95026.65
2019-03-18T13:37:52.103Z,95040.59
2019-03-18T13:40:20.725Z,95040.58
2019-03-18T13:42:49.370Z,95040.59
2019-03-18T13:45:22.079Z,95041.86
2019-03-18T13:47:50.701Z,95049.48
2019-03-18T13:50:22.565Z,95046.95
2019-03-18T13:52:51.124Z,95049.48
2019-03-18T13:55:19.745Z,95047.37
2019-03-18T13:57:48.318Z,95045.27
2019-03-18T14:00:17.933Z,95055.85
2019-03-18T14:02:46.565Z,95058.82
2019-03-18T14:05:15.590Z,95057.55
2019-03-18T14:07:44.316Z,95057.13
2019-03-18T14:10:23.635Z,95063.48
2019-03-18T14:12:53.606Z,95065.61
2019-03-18T14:15:23.577Z,95070.68
2019-03-18T14:17:52.169Z,95079.55
2019-03-18T14:20:23.150Z,95081.23
2019-03-18T14:22:51.747Z,95072.78
2019-03-18T14:25:20.385Z,95064.31
2019-03-18T14:27:48.912Z,95060.91
2019-03-18T14:30:22.103Z,95057.54
2019-03-18T14:32:50.730Z,95045.28
2019-03-18T14:35:21.566Z,95050.33
2019-03-18T14:37:49.740Z,95066.00
2019-03-18T14:40:24.192Z,95066.84
2019-03-18T14:42:52.782Z,95049.06
2019-03-18T14:45:22.379Z,95038.08
2019-03-18T14:47:51.007Z,95034.26
2019-03-18T14:50:20.097Z,95046.95
2019-03-18T14:52:49.282Z,95054.59
2019-03-18T14:55:19.016Z,95054.16
2019-03-18T14:57:48.944Z,95062.62
2019-03-18T15:00:19.742Z,95060.52
2019-03-18T15:02:48.347Z,95055.02
2019-03-18T15:05:16.869Z,95049.06
2019-03-18T15:07:45.810Z,95053.75
2019-03-18T15:10:16.610Z,95043.16
2019-03-18T15:12:45.177Z,95038.92
2019-03-18T15:15:16.112Z,95055.00
2019-03-18T15:17:44.714Z,95049.93
2019-03-18T15:20:15.014Z,95052.88
2019-03-18T15:22:43.982Z,95047.81
2019-03-18T15:25:15.327Z,95057.53
2019-03-18T15:27:43.934Z,95057.11
2019-03-18T15:30:17.746Z,95066.84
2019-03-18T15:32:46.354Z,95085.04
2019-03-18T15:35:16.662Z,95088.84
2019-03-18T15:37:45.199Z,95088.43
2019-03-18T15:40:19.650Z,95095.62
2019-03-18T15:42:48.318Z,95093.50
2019-03-18T15:45:21.276Z,95086.31
2019-03-18T15:47:49.890Z,95093.09
2019-03-18T15:50:20.547Z,95100.70
2019-03-18T15:52:51.270Z,95112.12
2019-03-18T15:55:19.483Z,95121.86
2019-03-18T15:57:48.090Z,95134.54
2019-03-18T16:00:28.146Z,95151.47
2019-03-18T16:02:56.709Z,95147.66
2019-03-18T16:05:25.513Z,95138.77
2019-03-18T16:07:54.129Z,95137.93
2019-03-18T16:10:22.733Z,95129.45
2019-03-18T16:12:51.344Z,95129.87
2019-03-18T16:15:20.061Z,95129.88
2019-03-18T16:17:48.670Z,95132.84
2019-03-18T16:20:19.445Z,95139.17
2019-03-18T16:22:47.949Z,95145.09
2019-03-18T16:25:16.483Z,95156.52
2019-03-18T16:27:45.058Z,95161.59
2019-03-18T16:30:18.243Z,95165.82
2019-03-18T16:32:46.855Z,95162.84
2019-03-18T16:35:16.539Z,95162.86
2019-03-18T16:37:45.475Z,95164.97
2019-03-18T16:40:18.390Z,95169.19
2019-03-18T16:42:46.996Z,95176.36
2019-03-18T16:45:17.001Z,95179.33
2019-03-18T16:47:45.974Z,95187.78
2019-03-18T16:50:30.610Z,95182.72
2019-03-18T16:52:59.250Z,95178.05
2019-03-18T16:55:27.791Z,95193.25
2019-03-18T16:57:56.444Z,95197.91
2019-03-18T17:00:25.960Z,95202.10
2019-03-18T17:02:54.648Z,95208.84
2019-03-18T17:05:23.253Z,95210.94
2019-03-18T17:07:54.194Z,95207.09
2019-03-18T17:10:22.191Z,95210.91
2019-03-18T17:12:50.657Z,95205.84
2019-03-18T17:15:20.566Z,95203.70
2019-03-18T17:17:49.170Z,95205.81
2019-03-18T17:20:18.093Z,95197.78
2019-03-18T17:22:53.302Z,95196.94
2019-03-18T17:25:31.766Z,95204.53
2019-03-18T17:28:00.378Z,95215.50
2019-03-18T17:30:28.986Z,95220.98
2019-03-18T17:32:57.510Z,95219.71
2019-03-18T17:35:26.125Z,95213.80
2019-03-18T17:37:54.663Z,95220.16
2019-03-18T17:40:23.275Z,95216.77
2019-03-18T17:42:51.918Z,95218.46
2019-03-18T17:45:20.533Z,95223.53
2019-03-18T17:47:49.066Z,95229.47
2019-03-18T17:50:31.096Z,95233.25
2019-03-18T17:53:03.477Z,95239.61
2019-03-18T17:55:30.162Z,95258.59
2019-03-18T17:57:58.641Z,95250.55
2019-03-18T18:00:34.890Z,95247.17
2019-03-18T18:03:03.580Z,95245.03
2019-03-18T18:05:32.221Z,95237.84
2019-03-18T18:08:00.758Z,95236.58
2019-03-18T18:10:29.392Z,95248.79
2019-03-18T18:12:57.969Z,95261.92
2019-03-18T18:15:26.607Z,95263.59
2019-03-18T18:17:55.146Z,95254.73
2019-03-18T18:20:23.722Z,95240.77
2019-03-18T18:22:52.399Z,95237.80
2019-03-18T18:25:21.035Z,95252.14
2019-03-18T18:27:49.502Z,95263.52
2019-03-18T18:30:19.456Z,95268.98
2019-03-18T18:32:48.060Z,95278.67
2019-03-18T18:35:16.713Z,95280.80
2019-03-18T18:37:45.272Z,95266.86
2019-03-18T18:40:19.182Z,95269.38
2019-03-18T18:42:47.728Z,95273.62
2019-03-18T18:45:16.364Z,95271.02
2019-03-18T18:47:46.505Z,95277.34
2019-03-18T18:50:15.405Z,95281.14
2019-03-18T18:52:44.016Z,95286.61
2019-03-18T18:55:13.663Z,95293.34
2019-03-18T18:57:42.253Z,95288.29
2019-03-18T19:00:19.125Z,95292.48
2019-03-18T19:02:47.746Z,95295.02
2019-03-18T19:05:17.379Z,95298.82
2019-03-18T19:07:46.025Z,95298.84
2019-03-18T19:10:16.245Z,95298.84
2019-03-18T19:12:44.788Z,95301.36
2019-03-18T19:15:16.403Z,95304.71
2019-03-18T19:17:45.031Z,95309.79
2019-03-18T19:20:14.530Z,95308.09
2019-03-18T19:22:44.505Z,95311.92
2019-03-18T19:25:17.037Z,95312.34
2019-03-18T19:27:45.647Z,95314.88
2019-03-18T19:30:19.191Z,95310.20
2019-03-18T19:32:47.832Z,95312.30
2019-03-18T19:35:16.731Z,95316.91
2019-03-18T19:37:45.344Z,95315.98
2019-03-18T19:40:16.114Z,95315.98
2019-03-18T19:42:44.723Z,95326.58
2019-03-18T19:45:14.632Z,95326.97
2019-03-18T19:47:43.549Z,95311.81
2019-03-18T19:50:24.558Z,95314.77
2019-03-18T19:52:53.164Z,95317.23
2019-03-18T19:55:21.736Z,95322.28
2019-03-18T19:57:50.436Z,95319.33
2019-03-18T20:00:24.588Z,95326.05
2019-03-18T20:02:53.126Z,95334.92
2019-03-18T20:05:21.777Z,95340.00
2019-03-18T20:07:50.512Z,95346.30
2019-03-18T20:10:20.978Z,95346.70
2019-03-18T20:12:49.895Z,95353.03
2019-03-18T20:15:19.508Z,95348.39
2019-03-18T20:17:48.185Z,95356.41
2019-03-18T20:20:21.411Z,95351.77
2019-03-18T20:22:50.083Z,95357.23
2019-03-18T20:25:18.688Z,95357.23
2019-03-18T20:27:47.325Z,95361.42
2019-03-18T20:30:19.600Z,95360.16
2019-03-18T20:32:48.228Z,95361.88
2019-03-18T20:35:19.177Z,95369.90
2019-03-18T20:37:51.667Z,95363.56
2019-03-18T20:40:19.159Z,95373.27
2019-03-18T20:42:47.790Z,95370.29
2019-03-18T20:45:18.544Z,95382.12
2019-03-18T20:47:47.149Z,95385.91
2019-03-18T20:50:19.827Z,95389.30
2019-03-18T20:52:50.074Z,95383.80
2019-03-18T20:55:18.705Z,95385.04
2019-03-18T20:57:47.342Z,95393.04
2019-03-18T21:00:17.686Z,95388.37
2019-03-18T21:02:46.292Z,95384.12
2019-03-18T21:05:14.909Z,95380.77
2019-03-18T21:07:43.447Z,95384.57
2019-03-18T21:10:16.624Z,95379.50
2019-03-18T21:12:45.251Z,95384.13
2019-03-18T21:15:15.254Z,95379.45
2019-03-18T21:17:43.971Z,95380.30
2019-03-18T21:20:18.182Z,95384.48
2019-03-18T21:22:46.812Z,95388.23
2019-03-18T21:25:15.428Z,95397.46
2019-03-18T21:27:44.060Z,95403.73
2019-03-18T21:30:22.752Z,95417.63
2019-03-18T21:32:51.692Z,95420.10
2019-03-18T21:35:20.669Z,95417.90
2019-03-18T21:37:49.191Z,95428.35
2019-03-18T21:40:19.915Z,95428.29
2019-03-18T21:42:48.552Z,95432.86
2019-03-18T21:45:19.426Z,95439.91
2019-03-18T21:47:48.338Z,95433.86
2019-03-18T21:50:17.658Z,95441.73
2019-03-18T21:52:46.571Z,95439.48
2019-03-18T21:55:16.282Z,95444.86
2019-03-18T21:57:44.920Z,95447.73
2019-03-18T22:00:23.952Z,95450.95
2019-03-18T22:02:52.565Z,95447.47
2019-03-18T22:05:21.172Z,95448.19
2019-03-18T22:07:49.829Z,95451.87
2019-03-18T22:10:19.830Z,95454.73
2019-03-18T22:12:48.534Z,95457.98
2019-03-18T22:15:18.085Z,95459.55
2019-03-18T22:17:46.690Z,95467.88
2019-03-18T22:20:19.603Z,95463.58
2019-03-18T22:22:48.205Z,95462.66
2019-03-18T22:25:17.319Z,95463.84
2019-03-18T22:27:45.939Z,95447.79
2019-03-18T22:30:18.509Z,95453.55
2019-03-18T22:32:47.394Z,95465.25
2019-03-18T22:35:16.007Z,95469.37
2019-03-18T22:37:44.615Z,95479.77
2019-03-18T22:40:17.267Z,95466.66
2019-03-18T22:42:45.928Z,95465.73
2019-03-18T22:45:16.935Z,95471.16
2019-03-18T22:47:45.851Z,95468.58
2019-03-18T22:50:16.309Z,95473.16
2019-03-18T22:52:45.026Z,95476.02
2019-03-18T22:55:14.507Z,95480.55
2019-03-18T22:57:43.109Z,95479.23
2019-03-18T23:00:27.116Z,95488.86
2019-03-18T23:02:55.719Z,95487.59
2019-03-18T23:05:24.384Z,95491.30
2019-03-18T23:07:52.956Z,95502.17
2019-03-18T23:10:21.859Z,95496.30
2019-03-18T23:12:50.574Z,95493.30
2019-03-18T23:15:19.173Z,95488.62
2019-03-18T23:17:47.864Z,95491.09
2019-03-18T23:20:16.608Z,95491.09
2019-03-18T23:22:45.228Z,95496.03
2019-03-18T23:25:13.863Z,95503.98
2019-03-18T23:27:42.575Z,95500.14
2019-03-18T23:30:16.088Z,95501.34
2019-03-18T23:32:44.705Z,95503.41
2019-03-18T23:35:14.475Z,95503.41
2019-03-18T23:37:43.063Z,95512.23
2019-03-18T23:40:13.949Z,95503.35
2019-03-18T23:42:42.650Z,95504.18
2019-03-18T23:45:12.524Z,95506.66
2019-03-18T23:47:41.152Z,95512.49
2019-03-18T23:50:14.747Z,95519.17
2019-03-18T23:52:43.470Z,95519.58
2019-03-18T23:55:19.129Z,95516.18
2019-03-18T23:57:43.004Z,95514.91
